Time;durP1;ratioP1;P1;durP2;ratioP2;P2;SDS_P1;SDS_P2;PMS_P1;PMS_P2;Temp;Humidity;BMP_temperature;BMP_pressure;BME280_temperature;BME280_humidity;BME280_pressure;Samples;Min_cycle;Max_cycle;Signal;HPM_P1;HPM_P2
2021/10/09 00:00:08;;;;;;;30.33;15.38;;;;;;;;;;5044557;28;20025;-85
2021/10/09 00:02:34;;;;;;;31.50;15.57;;;;;;;;;;5038387;28;20094;-87
2021/10/09 00:05:00;;;;;;;25.17;14.60;;;;;;;;;;5044762;28;20500;-84
2021/10/09 00:07:28;;;;;;;29.45;15.27;;;;;;;;;;5045453;28;20020;-86
2021/10/09 00:09:59;;;;;;;29.88;15.10;;;;;;;;;;5046428;28;20033;-83
2021/10/09 00:12:25;;;;;;;26.45;15.15;;;;;;;;;;5042266;28;20048;-85
2021/10/09 00:14:51;;;;;;;28.42;15.52;;;;;;;;;;5077321;28;20044;-85
2021/10/09 00:17:19;;;;;;;28.65;15.43;;;;;;;;;;5055577;28;20083;-84
2021/10/09 00:19:47;;;;;;;30.25;16.40;;;;;;;;;;5046006;28;20098;-87
2021/10/09 00:22:16;;;;;;;30.83;16.58;;;;;;;;;;5042542;28;20032;-83
2021/10/09 00:24:46;;;;;;;33.47;15.45;;;;;;;;;;5031966;28;20040;-84
2021/10/09 00:27:13;;;;;;;27.42;15.43;;;;;;;;;;5046287;28;20025;-83
2021/10/09 00:29:39;;;;;;;28.73;15.90;;;;;;;;;;5041148;28;20079;-84
2021/10/09 00:32:05;;;;;;;27.85;15.20;;;;;;;;;;5038848;28;20044;-83
2021/10/09 00:34:31;;;;;;;30.30;15.90;;;;;;;;;;5040995;28;20426;-84
2021/10/09 00:36:58;;;;;;;30.30;15.60;;;;;;;;;;5047502;28;20029;-85
2021/10/09 00:39:27;;;;;;;31.17;16.38;;;;;;;;;;5041216;28;20025;-87
2021/10/09 00:41:53;;;;;;;29.05;15.40;;;;;;;;;;5038287;28;20025;-85
2021/10/09 00:44:22;;;;;;;30.55;16.35;;;;;;;;;;5041155;28;20028;-87
2021/10/09 00:46:48;;;;;;;30.80;16.17;;;;;;;;;;5046270;28;20128;-88
2021/10/09 00:49:15;;;;;;;33.42;17.75;;;;;;;;;;5033490;28;20037;-85
2021/10/09 00:51:45;;;;;;;33.42;16.42;;;;;;;;;;5041151;28;20047;-84
2021/10/09 00:54:13;;;;;;;31.70;16.42;;;;;;;;;;5046674;28;20021;-86
2021/10/09 00:56:42;;;;;;;33.10;17.42;;;;;;;;;;5042038;28;20117;-84
2021/10/09 00:59:15;;;;;;;31.40;16.52;;;;;;;;;;5042859;28;20048;-85
2021/10/09 01:01:42;;;;;;;32.70;16.60;;;;;;;;;;5046186;28;20025;-85
2021/10/09 01:04:09;;;;;;;31.20;17.23;;;;;;;;;;5045894;28;20032;-85
2021/10/09 01:06:35;;;;;;;29.80;16.38;;;;;;;;;;5047403;28;20029;-85
2021/10/09 01:09:01;;;;;;;35.40;17.50;;;;;;;;;;5052085;28;20063;-85
2021/10/09 01:11:32;;;;;;;33.22;15.50;;;;;;;;;;5048842;28;20029;-83
2021/10/09 01:13:58;;;;;;;32.30;15.93;;;;;;;;;;5041262;28;20088;-84
2021/10/09 01:16:25;;;;;;;32.30;16.75;;;;;;;;;;5051513;28;20024;-86
2021/10/09 01:18:52;;;;;;;33.92;16.35;;;;;;;;;;5040426;28;20047;-83
2021/10/09 01:21:19;;;;;;;31.83;17.02;;;;;;;;;;5058272;28;20473;-84
2021/10/09 01:23:45;;;;;;;29.38;16.60;;;;;;;;;;5034385;28;20030;-85
2021/10/09 01:26:11;;;;;;;33.17;17.13;;;;;;;;;;5035451;28;20112;-84
2021/10/09 01:28:38;;;;;;;30.52;16.50;;;;;;;;;;5041543;28;20033;-85
2021/10/09 01:31:04;;;;;;;30.20;16.38;;;;;;;;;;5042568;28;20383;-84
2021/10/09 01:33:30;;;;;;;33.83;16.85;;;;;;;;;;5039309;28;20028;-86
2021/10/09 01:35:57;;;;;;;30.40;16.85;;;;;;;;;;5042717;28;20025;-85
2021/10/09 01:38:35;;;;;;;33.08;16.17;;;;;;;;;;5056613;28;20052;-85
2021/10/09 01:41:02;;;;;;;32.97;16.02;;;;;;;;;;5044729;28;20033;-87
2021/10/09 01:43:28;;;;;;;29.40;16.27;;;;;;;;;;5043749;28;20029;-85
2021/10/09 01:45:54;;;;;;;31.02;16.60;;;;;;;;;;5054484;28;20088;-84
2021/10/09 01:48:29;;;;;;;37.17;17.23;;;;;;;;;;5047048;28;20029;-85
2021/10/09 01:50:55;;;;;;;32.30;17.02;;;;;;;;;;5045562;28;20029;-85
2021/10/09 01:53:21;;;;;;;34.65;17.08;;;;;;;;;;5046503;28;20028;-83
2021/10/09 01:55:47;;;;;;;32.65;16.75;;;;;;;;;;5043125;28;20032;-83
2021/10/09 01:58:13;;;;;;;35.08;17.20;;;;;;;;;;5045094;28;20033;-85
2021/10/09 02:00:39;;;;;;;33.80;17.63;;;;;;;;;;5049070;28;20042;-81
2021/10/09 02:03:09;;;;;;;34.60;17.15;;;;;;;;;;5046095;28;20028;-85
2021/10/09 02:05:35;;;;;;;35.85;17.77;;;;;;;;;;5045767;28;20056;-87
2021/10/09 02:08:05;;;;;;;34.38;17.30;;;;;;;;;;5048784;28;20037;-84
2021/10/09 02:10:31;;;;;;;31.88;16.40;;;;;;;;;;5063312;28;20025;-85
2021/10/09 02:12:59;;;;;;;34.92;17.50;;;;;;;;;;5053003;28;20032;-85
2021/10/09 02:15:34;;;;;;;33.53;17.00;;;;;;;;;;5051510;28;20036;-86
2021/10/09 02:26:16;;;;;;;32.30;17.70;;;;;;;;;;4974821;28;20027;-83
2021/10/09 02:28:50;;;;;;;37.17;17.77;;;;;;;;;;5021408;28;20037;-85
2021/10/09 02:31:16;;;;;;;36.22;18.50;;;;;;;;;;5049954;28;20025;-87
2021/10/09 02:33:45;;;;;;;33.03;16.85;;;;;;;;;;5046011;28;20036;-84
2021/10/09 02:36:11;;;;;;;35.00;19.02;;;;;;;;;;5041651;28;20478;-84
2021/10/09 02:38:40;;;;;;;39.97;19.67;;;;;;;;;;5040548;28;20021;-85
2021/10/09 02:41:06;;;;;;;33.60;17.83;;;;;;;;;;5041430;28;20029;-87
2021/10/09 02:43:35;;;;;;;38.25;20.38;;;;;;;;;;5038553;28;20058;-86
2021/10/09 02:46:01;;;;;;;38.63;19.85;;;;;;;;;;5040475;28;20033;-87
2021/10/09 02:48:31;;;;;;;39.83;17.98;;;;;;;;;;5059307;28;20048;-85
2021/10/09 02:50:57;;;;;;;38.92;18.23;;;;;;;;;;5045975;28;20422;-86
2021/10/09 02:53:23;;;;;;;37.50;18.55;;;;;;;;;;5043335;28;20024;-86
2021/10/09 02:55:49;;;;;;;35.80;17.85;;;;;;;;;;5045037;28;20029;-85
2021/10/09 02:58:19;;;;;;;37.58;19.35;;;;;;;;;;5044274;28;20025;-84
2021/10/09 03:00:45;;;;;;;40.42;19.65;;;;;;;;;;5045266;28;20025;-83
2021/10/09 03:03:11;;;;;;;33.92;17.20;;;;;;;;;;5053877;28;20128;-86
2021/10/09 03:05:37;;;;;;;41.42;20.17;;;;;;;;;;5037913;28;20042;-86
2021/10/09 03:08:03;;;;;;;33.15;17.85;;;;;;;;;;5044662;28;20480;-87
2021/10/09 03:10:32;;;;;;;38.75;18.45;;;;;;;;;;5042765;28;20020;-88
2021/10/09 03:12:58;;;;;;;36.70;18.38;;;;;;;;;;5038213;28;20125;-85
2021/10/09 03:15:30;;;;;;;35.35;18.13;;;;;;;;;;5058773;28;20071;-84
2021/10/09 03:18:01;;;;;;;32.97;17.00;;;;;;;;;;5047047;28;20033;-85
2021/10/09 03:20:28;;;;;;;32.85;17.50;;;;;;;;;;5053752;28;20013;-88
2021/10/09 03:22:54;;;;;;;37.22;18.35;;;;;;;;;;5055861;28;20219;-84
2021/10/09 03:25:29;;;;;;;47.28;19.67;;;;;;;;;;5035644;28;20296;-85
2021/10/09 03:27:58;;;;;;;37.08;18.65;;;;;;;;;;5042089;28;20021;-84
2021/10/09 03:30:26;;;;;;;34.05;16.42;;;;;;;;;;5036468;28;20715;-82
2021/10/09 03:32:52;;;;;;;37.70;18.80;;;;;;;;;;5052607;28;20024;-85
2021/10/09 03:35:19;;;;;;;35.47;17.92;;;;;;;;;;5045231;28;20025;-87
2021/10/09 03:37:47;;;;;;;35.20;17.98;;;;;;;;;;5044201;28;20021;-85
2021/10/09 03:40:22;;;;;;;36.15;18.80;;;;;;;;;;5042532;28;20099;-85
2021/10/09 03:42:56;;;;;;;33.72;17.75;;;;;;;;;;5052076;28;20084;-84
2021/10/09 03:45:30;;;;;;;36.25;18.38;;;;;;;;;;5044963;28;20078;-85
2021/10/09 03:48:25;;;;;;;43.65;19.55;;;;;;;;;;5033401;28;20471;-85
2021/10/09 03:53:47;;;;;;;36.22;18.52;;;;;;;;;;5058186;28;20080;-85
2021/10/09 03:56:13;;;;;;;45.97;20.80;;;;;;;;;;5030695;28;20049;-87
2021/10/09 03:58:39;;;;;;;42.72;19.27;;;;;;;;;;5045237;28;20055;-85
2021/10/09 04:01:06;;;;;;;38.17;18.48;;;;;;;;;;5060876;28;20033;-83
2021/10/09 04:03:32;;;;;;;37.65;18.20;;;;;;;;;;5030872;28;20035;-85
2021/10/09 04:05:58;;;;;;;35.90;18.67;;;;;;;;;;5062360;28;20482;-85
2021/10/09 04:08:24;;;;;;;39.05;19.08;;;;;;;;;;5045847;28;20033;-85
2021/10/09 04:10:50;;;;;;;35.90;17.45;;;;;;;;;;5036207;28;20029;-85
2021/10/09 04:13:16;;;;;;;37.67;19.40;;;;;;;;;;5045494;28;20025;-85
2021/10/09 04:15:42;;;;;;;36.13;18.50;;;;;;;;;;5043001;28;20102;-87
2021/10/09 04:18:07;;;;;;;34.95;18.80;;;9.80;99.90;;;;;;5044797;28;20037;-85
2021/10/09 04:20:38;;;;;;;36.55;17.60;;;9.70;99.90;;;;;;5036631;28;20034;-86
2021/10/09 04:23:07;;;;;;;33.17;17.60;;;;;;;;;;5037664;28;20092;-85
2021/10/09 04:25:43;;;;;;;35.67;19.17;;;;;;;;;;5055593;28;20079;-85
2021/10/09 04:28:12;;;;;;;40.53;19.15;;;;;;;;;;5057104;28;20029;-84
2021/10/09 04:30:38;;;;;;;42.90;19.75;;;;;;;;;;5042130;28;20033;-84
2021/10/09 04:33:04;;;;;;;39.33;19.02;;;;;;;;;;5052608;28;20017;-84
2021/10/09 04:35:30;;;;;;;36.85;19.10;;;;;;;;;;5045305;28;20081;-83
2021/10/09 04:37:59;;;;;;;41.10;21.40;;;;;;;;;;5040837;28;20487;-83
2021/10/09 04:40:30;;;;;;;38.58;19.80;;;;;;;;;;5044763;28;20032;-85
2021/10/09 04:42:56;;;;;;;41.28;19.52;;;;;;;;;;5047237;28;20017;-85
2021/10/09 04:45:22;;;;;;;39.50;18.80;;;;;;;;;;5037732;28;20029;-86
2021/10/09 04:47:51;;;;;;;36.60;19.08;;;;;;;;;;5038773;28;20037;-84
2021/10/09 04:50:20;;;;;;;36.47;18.55;;;;;;;;;;5041675;28;20509;-86
2021/10/09 04:52:46;;;;;;;39.92;19.77;;;;;;;;;;5054652;28;20031;-86
2021/10/09 04:55:13;;;;;;;35.80;18.65;;;;;;;;;;5043152;28;20029;-82
2021/10/09 04:57:43;;;;;;;39.72;18.45;;;;;;;;;;5041617;28;20553;-85
2021/10/09 05:00:16;;;;;;;37.88;18.67;;;;;;;;;;5041762;28;20395;-86
2021/10/09 05:02:45;;;;;;;36.45;17.42;;;;;;;;;;5046164;28;20025;-85
2021/10/09 05:05:11;;;;;;;37.03;18.40;;;;;;;;;;5035561;28;20033;-86
2021/10/09 05:07:43;;;;;;;34.80;17.83;;;;;;;;;;5042194;28;20093;-85
2021/10/09 05:10:09;;;;;;;40.00;18.95;;;;;;;;;;5042660;28;20041;-84
2021/10/09 05:12:47;;;;;;;38.45;18.10;;;;;;;;;;5046837;28;20098;-84
2021/10/09 05:15:13;;;;;;;34.95;17.92;;;;;;;;;;5038691;28;20025;-84
2021/10/09 05:17:39;;;;;;;38.20;18.08;;;;;;;;;;5043570;28;20124;-88
2021/10/09 05:20:06;;;;;;;32.95;17.40;;;;;;;;;;5044522;28;20036;-84
2021/10/09 05:22:33;;;;;;;31.73;17.00;;;;;;;;;;5049502;28;20058;-86
2021/10/09 05:24:59;;;;;;;35.28;18.10;;;;;;;;;;5043604;28;20025;-84
2021/10/09 05:27:27;;;;;;;33.10;18.30;;;;;;;;;;5040318;28;20029;-86
2021/10/09 05:30:01;;;;;;;38.72;19.10;;;;;;;;;;5052331;28;20021;-87
2021/10/09 05:32:31;;;;;;;36.60;19.52;;;;;;;;;;5044820;28;20100;-85
2021/10/09 05:35:00;;;;;;;37.10;18.63;;;;;;;;;;5046247;28;20033;-85
2021/10/09 05:37:37;;;;;;;37.38;19.60;;;;;;;;;;5032227;28;20033;-84
2021/10/09 05:40:08;;;;;;;39.08;20.02;;;;;;;;;;5040830;28;20063;-84
2021/10/09 05:42:34;;;;;;;39.90;20.42;;;;;;;;;;5043378;28;20025;-84
2021/10/09 05:45:00;;;;;;;41.05;20.70;;;;;;;;;;5058010;28;20041;-85
2021/10/09 05:47:29;;;;;;;40.30;19.27;;;;;;;;;;5044293;28;20037;-85
2021/10/09 05:49:56;;;;;;;42.25;19.60;;;;;;;;;;5044788;28;20029;-85
2021/10/09 05:52:42;;;;;;;36.63;20.33;;;;;;;;;;5037153;28;20021;-83
2021/10/09 05:58:07;;;;;;;39.83;18.52;;;;;;;;;;5062855;28;20029;-85
2021/10/09 06:50:18;;;;;;;36.60;16.95;;;;;;;;;;5065022;28;20032;-86
2021/10/09 07:00:58;;;;;;;34.42;15.85;;;9.70;99.90;;;;;;5061784;28;20071;-87
2021/10/09 07:03:24;;;;;;;32.97;17.35;;;;;;;;;;5046444;28;20037;-86
2021/10/09 07:05:50;;;;;;;32.70;16.83;;;10.00;99.90;;;;;;5042766;28;20502;-87
2021/10/09 07:08:17;;;;;;;32.33;16.08;;;10.10;99.90;;;;;;5048495;28;20040;-86
2021/10/09 07:10:46;;;;;;;29.15;16.20;;;;;;;;;;5050255;28;20028;-86
2021/10/09 07:13:13;;;;;;;31.23;15.90;;;;;;;;;;5044929;28;20029;-85
2021/10/09 07:15:39;;;;;;;32.47;15.77;;;;;;;;;;5066745;28;20399;-84
2021/10/09 07:18:10;;;;;;;31.75;15.75;;;;;;;;;;5066248;28;20038;-85
2021/10/09 07:20:40;;;;;;;31.45;15.88;;;;;;;;;;5051500;28;20043;-83
2021/10/09 07:23:11;;;;;;;32.42;16.02;;;;;;;;;;5042569;28;20029;-86
2021/10/09 07:25:40;;;;;;;33.08;16.60;;;;;;;;;;5044069;28;20024;-81
2021/10/09 07:28:06;;;;;;;29.73;15.80;;;;;;;;;;5041891;28;20031;-85
2021/10/09 07:30:33;;;;;;;28.23;15.27;;;;;;;;;;5062346;28;20025;-87
2021/10/09 07:33:01;;;;;;;31.08;14.82;;;;;;;;;;5060007;28;20084;-83
2021/10/09 07:35:28;;;;;;;30.35;15.93;;;;;;;;;;5053132;28;20009;-85
2021/10/09 07:37:54;;;;;;;29.75;15.02;;;;;;;;;;5040590;28;20028;-87
2021/10/09 07:40:20;;;;;;;33.00;15.77;;;;;;;;;;5048020;28;20032;-86
2021/10/09 07:42:46;;;;;;;25.98;13.80;;;;;;;;;;5046484;28;20025;-87
2021/10/09 07:45:15;;;;;;;30.88;14.98;;;10.90;99.90;;;;;;5047352;28;20035;-83
2021/10/09 07:47:42;;;;;;;27.10;13.43;;;11.00;99.90;;;;;;5046124;28;20064;-84
2021/10/09 07:50:08;;;;;;;27.40;13.52;;;;;;;;;;5042621;28;20494;-85
2021/10/09 07:52:35;;;;;;;27.90;14.32;;;;;;;;;;5046009;28;20035;-83
2021/10/09 07:55:11;;;;;;;28.05;13.48;;;;;;;;;;5064548;28;20029;-81
2021/10/09 07:57:37;;;;;;;25.20;14.00;;;;;;;;;;5044112;28;20033;-84
2021/10/09 08:00:04;;;;;;;28.23;13.93;;;11.30;99.90;;;;;;5048889;28;20028;-84
2021/10/09 08:02:35;;;;;;;25.83;14.15;;;;;;;;;;5045287;28;20128;-83
2021/10/09 08:05:01;;;;;;;27.05;12.85;;;;;;;;;;5046985;28;20029;-81
2021/10/09 08:07:30;;;;;;;30.45;14.10;;;;;;;;;;5060012;28;20025;-85
2021/10/09 08:09:56;;;;;;;23.75;12.35;;;;;;;;;;5041696;28;20659;-84
2021/10/09 08:12:22;;;;;;;24.25;12.63;;;;;;;;;;5047798;28;20640;-85
2021/10/09 08:14:48;;;;;;;23.80;12.70;;;;;;;;;;5040918;28;20041;-84
2021/10/09 08:17:14;;;;;;;25.05;12.48;;;;;;;;;;5044083;28;20021;-82
2021/10/09 08:19:40;;;;;;;25.25;12.57;;;;;;;;;;5064778;28;20032;-83
2021/10/09 08:22:10;;;;;;;21.83;11.80;;;;;;;;;;5040543;28;20029;-82
2021/10/09 08:28:00;;;;;;;25.70;13.43;;;;;;;;;;5046488;28;20028;-86
2021/10/09 08:41:09;;;;;;;22.45;11.70;;;;;;;;;;5050203;28;20089;-85
2021/10/09 08:43:36;;;;;;;22.27;11.88;;;;;;;;;;5045615;28;20029;-81
2021/10/09 08:46:02;;;;;;;20.52;11.77;;;;;;;;;;5044496;28;20025;-84
2021/10/09 08:48:29;;;;;;;23.60;10.52;;;;;;;;;;5045334;28;20033;-86
2021/10/09 08:50:57;;;;;;;18.80;10.85;;;12.90;99.90;;;;;;5045109;28;20103;-84
2021/10/09 08:53:43;;;;;;;19.13;9.50;;;;;;;;;;5059272;28;20025;-86
2021/10/09 08:56:11;;;;;;;21.45;10.60;;;;;;;;;;5034910;28;20025;-82
2021/10/09 08:58:43;;;;;;;18.25;11.15;;;13.10;99.90;;;;;;5056385;28;20056;-85
2021/10/09 09:01:27;;;;;;;19.85;10.75;;;13.30;99.90;;;;;;5030814;28;20054;-86
2021/10/09 09:25:59;;;;;;;20.80;10.00;;;14.10;99.90;;;;;;5058505;28;20044;-86
2021/10/09 09:33:47;;;;;;;17.85;9.73;;;;;;;;;;5059565;28;20103;-84
2021/10/09 09:36:30;;;;;;;19.73;9.45;;;14.30;99.70;;;;;;5038684;28;20021;-84
2021/10/09 09:39:11;;;;;;;19.90;10.70;;;;;;;;;;5044317;28;20061;-83
2021/10/09 09:41:44;;;;;;;18.42;9.77;;;;;;;;;;5040812;28;20029;-83
2021/10/09 09:44:26;;;;;;;15.88;9.20;;;15.10;98.50;;;;;;5046849;28;20028;-82
2021/10/09 09:47:05;;;;;;;15.50;9.15;;;15.60;97.80;;;;;;5052211;28;20037;-84
2021/10/09 09:49:31;;;;;;;15.52;8.45;;;15.90;97.10;;;;;;5050294;28;20481;-83
2021/10/09 09:51:59;;;;;;;19.15;9.05;;;16.20;96.60;;;;;;5067896;28;20359;-83
2021/10/09 09:54:29;;;;;;;15.02;8.82;;;16.60;95.80;;;;;;5040681;28;20025;-85
2021/10/09 09:57:00;;;;;;;19.60;8.63;;;16.70;95.40;;;;;;5043434;28;20487;-84
2021/10/09 09:59:33;;;;;;;16.27;8.35;;;16.50;95.40;;;;;;5036691;28;20557;-84
2021/10/09 10:02:05;;;;;;;16.08;8.48;;;16.10;95.40;;;;;;5036782;28;20033;-83
2021/10/09 10:04:37;;;;;;;17.13;8.63;;;16.00;96.20;;;;;;5043120;28;20037;-83
2021/10/09 10:07:04;;;;;;;16.25;7.95;;;;;;;;;;5044947;28;20037;-81
2021/10/09 10:09:31;;;;;;;12.82;8.15;;;15.80;96.60;;;;;;5045913;28;20079;-83
2021/10/09 10:12:02;;;;;;;13.23;8.40;;;15.90;96.70;;;;;;5043904;28;20032;-83
2021/10/09 10:14:30;;;;;;;18.48;8.52;;;15.90;96.60;;;;;;5037879;28;20021;-84
2021/10/09 10:16:58;;;;;;;14.30;8.15;;;15.90;96.40;;;;;;5043716;28;20021;-81
2021/10/09 10:19:51;;;;;;;13.98;7.70;;;16.00;99.90;;;;;;5065240;28;20075;-80
2021/10/09 10:22:40;;;;;;;17.05;7.95;;;15.90;96.40;;;;;;5046795;28;20082;-81
2021/10/09 10:25:25;;;;;;;15.52;8.07;;;;;;;;;;5062052;28;20036;-82
2021/10/09 10:28:14;;;;;;;12.38;7.60;;;16.10;96.30;;;;;;5061784;28;20025;-82
2021/10/09 10:30:49;;;;;;;13.57;8.02;;;16.60;98.80;;;;;;5057700;28;20040;-83
2021/10/09 10:33:18;;;;;;;17.95;8.90;;;;;;;;;;5057543;28;20028;-82
2021/10/09 10:35:46;;;;;;;13.70;8.02;;;17.60;93.40;;;;;;5071786;28;20020;-84
2021/10/09 10:38:23;;;;;;;14.73;7.90;;;17.70;92.40;;;;;;5049332;28;20037;-84
2021/10/09 10:40:58;;;;;;;13.07;7.45;;;18.00;92.00;;;;;;5060484;28;20021;-84
2021/10/09 10:43:51;;;;;;;14.65;7.40;;;;;;;;;;5067960;28;20028;-81
2021/10/09 10:46:31;;;;;;;13.95;7.30;;;18.20;91.80;;;;;;5030812;28;20144;-83
2021/10/09 10:49:17;;;;;;;14.88;7.28;;;;;;;;;;5047114;28;20060;-86
2021/10/09 10:56:59;;;;;;;14.48;7.22;;;;;;;;;;5062808;28;20045;-86
2021/10/09 10:59:32;;;;;;;15.07;7.57;;;;;;;;;;5055282;28;20027;-85
2021/10/09 11:02:11;;;;;;;12.30;7.07;;;;;;;;;;5048931;28;20029;-85
2021/10/09 11:04:47;;;;;;;15.38;8.30;;;;;;;;;;5065493;28;20029;-82
2021/10/09 11:07:33;;;;;;;16.77;7.97;;;;;;;;;;5057326;28;20029;-85
2021/10/09 11:10:00;;;;;;;12.05;6.97;;;;;;;;;;5023158;28;20502;-87
2021/10/09 11:12:31;;;;;;;14.85;6.93;;;;;;;;;;5041567;28;20029;-84
2021/10/09 11:15:19;;;;;;;13.60;7.40;;;17.90;91.90;;;;;;5033533;28;20023;-83
2021/10/09 11:17:47;;;;;;;13.60;7.35;;;;;;;;;;5041475;28;20044;-84
2021/10/09 11:20:20;;;;;;;13.05;6.78;;;;;;;;;;5046687;28;20025;-86
2021/10/09 11:22:48;;;;;;;14.10;6.90;;;;;;;;;;5044976;28;20513;-86
2021/10/09 11:25:21;;;;;;;14.23;7.60;;;;;;;;;;5045011;28;20466;-86
2021/10/09 11:27:47;;;;;;;22.77;11.70;;;;;;;;;;5061486;28;20025;-84
2021/10/09 11:30:17;;;;;;;14.98;8.68;;;;;;;;;;5050736;28;20021;-85
2021/10/09 11:32:46;;;;;;;26.30;13.68;;;;;;;;;;5044171;28;20021;-84
2021/10/09 11:35:15;;;;;;;29.63;14.60;;;;;;;;;;5056902;28;20504;-84
2021/10/09 11:37:49;;;;;;;21.08;10.27;;;;;;;;;;5048405;28;20029;-85
2021/10/09 11:40:18;;;;;;;19.08;8.10;;;;;;;;;;5061730;28;20025;-84
2021/10/09 11:42:59;;;;;;;17.30;9.60;;;;;;;;;;5045260;28;20540;-81
2021/10/09 11:45:40;;;;;;;10.95;6.30;;;;;;;;;;5025962;28;20132;-84
2021/10/09 11:53:49;;;;;;;11.65;6.50;;;;;;;;;;5059133;28;20032;-86
2021/10/09 11:56:15;;;;;;;13.73;7.25;;;;;;;;;;5052200;28;20024;-87
2021/10/09 11:58:45;;;;;;;14.57;6.38;;;;;;;;;;5055654;28;20148;-85
2021/10/09 12:01:26;;;;;;;12.07;6.47;;;;;;;;;;5045483;28;20021;-81
2021/10/09 12:04:01;;;;;;;9.85;6.28;;;;;;;;;;5043599;28;20095;-85
2021/10/09 12:06:44;;;;;;;11.45;5.85;;;;;;;;;;5036486;28;20025;-86
2021/10/09 12:09:11;;;;;;;10.50;5.93;;;;;;;;;;5037399;28;20021;-84
2021/10/09 12:11:37;;;;;;;14.25;6.85;;;;;;;;;;5043019;28;20032;-84
2021/10/09 12:14:05;;;;;;;13.68;6.28;;;;;;;;;;5040628;28;20025;-86
2021/10/09 12:16:33;;;;;;;11.02;5.88;;;;;;;;;;5039373;28;20017;-86
2021/10/09 12:19:03;;;;;;;13.73;5.85;;;;;;;;;;5030697;28;20060;-84
2021/10/09 12:21:34;;;;;;;11.15;6.20;;;;;;;;;;5040393;28;20067;-86
2021/10/09 12:24:13;;;;;;;7.80;5.47;;;;;;;;;;5047438;28;20058;-85
2021/10/09 12:26:39;;;;;;;11.48;6.03;;;;;;;;;;5048331;28;20155;-81
2021/10/09 12:29:06;;;;;;;11.52;5.28;;;;;;;;;;5036826;28;20123;-87
2021/10/09 12:31:33;;;;;;;11.82;5.70;;;;;;;;;;5043189;28;20035;-86
2021/10/09 12:34:00;;;;;;;11.45;5.60;;;;;;;;;;5043388;28;20033;-87
2021/10/09 12:36:31;;;;;;;9.98;5.25;;;;;;;;;;5060868;28;20025;-87
2021/10/09 12:38:58;;;;;;;14.05;5.75;;;;;;;;;;5042116;28;20039;-87
2021/10/09 12:41:27;;;;;;;8.00;4.72;;;;;;;;;;5043360;28;20040;-86
2021/10/09 12:43:54;;;;;;;9.93;5.18;;;;;;;;;;5051875;28;20039;-86
2021/10/09 12:46:30;;;;;;;;;;;;;;;;;;;;;
2021/10/09 12:49:02;;;;;;;10.98;4.97;;;;;;;;;;5062508;28;20120;-88
2021/10/09 12:51:31;;;;;;;10.13;5.40;;;;;;;;;;5043082;28;20025;-87
2021/10/09 12:54:03;;;;;;;9.40;5.20;;;;;;;;;;5043209;28;20041;-87
2021/10/09 12:56:29;;;;;;;9.48;4.97;;;;;;;;;;5049369;28;20025;-87
2021/10/09 12:58:58;;;;;;;9.70;4.97;;;;;;;;;;5038432;28;20087;-87
2021/10/09 13:01:24;;;;;;;9.15;4.95;;;;;;;;;;5040197;28;20394;-83
2021/10/09 13:03:51;;;;;;;9.90;5.28;;;;;;;;;;5042986;28;20029;-86
2021/10/09 13:06:17;;;;;;;10.07;5.32;;;;;;;;;;5044817;28;20024;-85
2021/10/09 13:08:43;;;;;;;7.53;4.53;;;;;;;;;;5041579;28;20055;-82
2021/10/09 13:11:09;;;;;;;8.98;5.32;;;;;;;;;;5041652;28;20033;-85
2021/10/09 13:13:39;;;;;;;10.43;4.72;;;;;;;;;;5038226;28;20074;-86
2021/10/09 13:16:09;;;;;;;8.48;4.97;;;;;;;;;;5033053;28;20057;-86
2021/10/09 13:18:35;;;;;;;11.35;6.00;;;;;;;;;;5041435;28;20036;-87
2021/10/09 13:21:01;;;;;;;9.57;5.05;;;;;;;;;;5057534;28;20036;-85
2021/10/09 13:23:31;;;;;;;9.15;5.05;;;;;;;;;;5041905;28;20037;-85
2021/10/09 13:26:01;;;;;;;13.88;5.07;;;;;;;;;;5048293;28;20024;-87
2021/10/09 13:28:31;;;;;;;10.52;4.95;;;;;;;;;;5042712;28;20089;-85
2021/10/09 13:30:58;;;;;;;9.13;5.10;;;;;;;;;;5043721;28;20040;-83
2021/10/09 13:33:24;;;;;;;10.18;5.25;;;;;;;;;;5035463;28;20036;-86
2021/10/09 13:35:50;;;;;;;9.02;5.47;;;;;;;;;;5042670;28;20471;-85
2021/10/09 13:38:17;;;;;;;7.93;4.85;;;;;;;;;;5036465;28;20044;-86
2021/10/09 13:40:43;;;;;;;8.80;4.47;;;;;;;;;;5041987;28;20079;-82
2021/10/09 13:43:12;;;;;;;11.00;5.70;;;;;;;;;;5045928;28;20040;-83
2021/10/09 13:45:45;;;;;;;9.15;4.80;;;;;;;;;;5048923;28;20096;-86
2021/10/09 13:48:11;;;;;;;9.00;4.82;;;;;;;;;;5049871;28;20498;-87
2021/10/09 13:50:43;;;;;;;8.90;5.15;;;;;;;;;;5047256;28;20056;-89
2021/10/09 13:53:10;;;;;;;10.30;5.53;;;;;;;;;;5047551;28;20021;-87
2021/10/09 13:55:37;;;;;;;8.02;4.78;;;;;;;;;;5047064;28;20193;-87
2021/10/09 13:58:06;;;;;;;8.45;4.80;;;;;;;;;;5046339;28;20402;-88
2021/10/09 14:00:32;;;;;;;9.10;5.10;;;;;;;;;;5038449;28;20021;-87
2021/10/09 14:03:02;;;;;;;10.15;5.05;;;;;;;;;;5036443;28;20041;-88
2021/10/09 14:05:29;;;;;;;;;;;18.40;84.30;;;;;;5045944;28;20028;-86
2021/10/09 14:07:55;;;;;;;7.28;5.10;;;;;;;;;;5044356;28;19915;-85
2021/10/09 14:10:28;;;;;;;6.95;4.65;;;;;;;;;;5057547;28;20082;-88
2021/10/09 14:12:57;;;;;;;8.15;4.85;;;;;;;;;;5041196;28;20028;-88
2021/10/09 14:15:23;;;;;;;11.80;5.50;;;;;;;;;;5042502;28;20036;-87
2021/10/09 14:17:49;;;;;;;10.30;5.68;;;;;;;;;;5042810;28;20021;-89
2021/10/09 14:20:15;;;;;;;9.80;5.25;;;;;;;;;;5050967;28;20029;-85
2021/10/09 14:22:41;;;;;;;12.57;5.10;;;;;;;;;;5052559;28;20039;-85
2021/10/09 14:25:08;;;;;;;8.43;5.03;;;;;;;;;;5061217;28;20028;-86
2021/10/09 14:27:34;;;;;;;10.05;5.30;;;;;;;;;;5050508;28;20025;-87
2021/10/09 14:30:00;;;;;;;11.75;5.43;;;;;;;;;;5037932;28;20777;-87
2021/10/09 14:32:30;;;;;;;10.43;5.55;;;;;;;;;;5049395;28;20032;-88
2021/10/09 14:34:56;;;;;;;8.43;4.85;;;;;;;;;;5044812;28;20394;-87
2021/10/09 14:37:22;;;;;;;8.23;5.10;;;;;;;;;;5038062;28;20029;-87
2021/10/09 14:39:48;;;;;;;9.52;4.63;;;;;;;;;;5040763;28;20037;-86
2021/10/09 14:42:15;;;;;;;11.73;4.93;;;;;;;;;;5046313;28;20036;-86
2021/10/09 14:44:41;;;;;;;8.32;4.57;;;;;;;;;;5045330;28;20070;-86
2021/10/09 14:47:34;;;;;;;9.77;5.18;;;;;;;;;;5063031;28;20029;-84
2021/10/09 14:50:11;;;;;;;10.85;5.45;;;;;;;;;;5061543;28;20033;-85
2021/10/09 15:01:34;;;;;;;8.48;5.10;;;;;;;;;;5067610;28;20062;-85
2021/10/09 15:20:23;;;;;;;8.93;5.40;;;;;;;;;;5064285;28;20035;-89
2021/10/09 15:22:49;;;;;;;8.93;5.55;;;;;;;;;;5043965;28;20083;-85
2021/10/09 15:25:15;;;;;;;8.43;5.10;;;;;;;;;;5046537;28;20029;-87
2021/10/09 15:27:44;;;;;;;10.98;4.75;;;;;;;;;;5046562;28;20430;-89
2021/10/09 15:30:15;;;;;;;10.63;5.60;;;;;;;;;;5040425;28;20032;-87
2021/10/09 15:32:45;;;;;;;10.15;4.88;;;;;;;;;;5046506;28;20624;-87
2021/10/09 15:35:20;;;;;;;9.07;5.13;;;;;;;;;;5039730;28;20039;-87
2021/10/09 15:37:48;;;;;;;10.10;5.30;;;;;;;;;;5040054;28;20490;-88
2021/10/09 15:40:17;;;;;;;10.70;5.38;;;;;;;;;;5043680;28;20033;-87
2021/10/09 15:42:43;;;;;;;8.38;4.63;;;;;;;;;;5041585;28;20048;-86
2021/10/09 15:45:14;;;;;;;13.75;5.88;;;;;;;;;;5046068;28;20033;-86
2021/10/09 15:47:40;;;;;;;11.77;5.63;;;;;;;;;;5044579;28;20036;-86
2021/10/09 15:50:06;;;;;;;11.52;5.70;;;;;;;;;;5059106;28;20037;-87
2021/10/09 15:52:32;;;;;;;10.25;4.93;;;;;;;;;;5038977;28;20035;-87
2021/10/09 15:54:58;;;;;;;9.10;5.57;;;;;;;;;;5053530;28;20025;-86
2021/10/09 15:57:25;;;;;;;11.90;5.20;;;;;;;;;;5048094;28;20078;-85
2021/10/09 15:59:51;;;;;;;14.45;6.57;;;;;;;;;;5042106;28;20068;-85
2021/10/09 16:02:17;;;;;;;11.30;5.00;;;;;;;;;;5062007;28;20389;-86
2021/10/09 16:04:43;;;;;;;10.07;5.22;;;;;;;;;;5043824;28;20056;-84
2021/10/09 16:07:09;;;;;;;12.48;5.65;;;;;;;;;;5043191;28;20047;-85
2021/10/09 16:09:35;;;;;;;10.15;5.22;;;;;;;;;;5036767;28;20033;-82
2021/10/09 16:12:01;;;;;;;9.75;5.10;;;;;;;;;;5041999;28;20048;-86
2021/10/09 16:14:27;;;;;;;13.10;6.65;;;;;;;;;;5043656;28;20517;-87
2021/10/09 16:16:54;;;;;;;9.35;4.95;;;;;;;;;;5061100;28;20029;-85
2021/10/09 16:19:29;;;;;;;13.65;6.75;;;;;;;;;;5043296;28;20120;-84
2021/10/09 16:21:55;;;;;;;7.63;4.80;;;;;;;;;;5039732;28;20413;-85
2021/10/09 16:24:24;;;;;;;10.13;5.45;;;;;;;;;;5042862;28;20033;-84
2021/10/09 16:26:50;;;;;;;11.73;5.78;;;;;;;;;;5040584;28;20024;-87
2021/10/09 16:29:16;;;;;;;11.70;5.40;;;;;;;;;;5037213;28;20049;-84
2021/10/09 16:31:43;;;;;;;11.20;5.72;;;;;;;;;;5043250;28;20025;-87
2021/10/09 16:34:11;;;;;;;12.68;6.78;;;;;;;;;;5041869;28;20036;-86
2021/10/09 16:36:37;;;;;;;10.07;5.88;;;;;;;;;;5036228;28;20049;-86
2021/10/09 16:39:07;;;;;;;13.95;6.13;;;;;;;;;;5054277;28;20056;-85
2021/10/09 16:41:33;;;;;;;11.23;5.43;;;;;;;;;;5041875;28;20041;-86
2021/10/09 16:43:59;;;;;;;10.43;5.85;;;;;;;;;;5046778;28;20032;-85
2021/10/09 16:46:25;;;;;;;8.98;5.30;;;;;;;;;;5059812;28;20033;-84
2021/10/09 16:48:53;;;;;;;15.40;6.95;;;;;;;;;;5040738;28;20020;-84
2021/10/09 16:51:19;;;;;;;16.00;7.63;;;;;;;;;;5045132;28;20028;-84
2021/10/09 16:53:46;;;;;;;11.68;6.55;;;;;;;;;;5046183;28;20033;-85